Detalii statie AGROSTAR [00001CEF]

Toti senzorii

Date Temperatura solului [C]Precipitatii [mm]Voltaj baterie [mV]HC Air temperature [C]HC Relative humidity [%]Punctul de roua [C]
medieminmaxsumaultimamedieminmaxmediemediemin
2018-08-12 11:00:00 21.7 21.6 21.9 0 7264 27.21 25.36 29.32 45.16 14 13.5
2018-08-12 12:00:00 22 21.9 22.2 0 7264 30.45 28.85 32.25 38.23 14.3 13.3
2018-08-12 13:00:00 22.4 22.2 22.6 0 7264 29.98 28.71 31.79 36.48 13.2 12.3
2018-08-12 14:00:00 22.8 22.6 23.1 0 7254 31.39 29.89 32.7 33.57 13.1 12.5
2018-08-12 15:00:00 23.2 23 23.6 0 7254 31.97 30.68 33.28 34.06 13.8 12.3
2018-08-12 16:00:00 23.6 23.4 23.8 0 7246 31.52 30.71 32.37 33.81 13.4 12.3
2018-08-12 17:00:00 23.9 23.8 24.1 0 7246 29.82 27.72 31.89 39.87 14.4 13.9
2018-08-12 18:00:00 24.1 24 24.2 0 7246 29.64 28.27 30.93 41.07 14.7 14.3
2018-08-12 19:00:00 24.2 24.1 24.4 0 6874 27.31 25.69 29.52 46.21 14.5 13.9
2018-08-12 20:00:00 24.3 24.1 24.5 0 6826 24.06 23.07 25.24 58.05 15.1 14.7
2018-08-12 21:00:00 24.2 24.1 24.4 0 6806 22.34 21.21 23.45 66.62 15.6 15.3
2018-08-12 22:00:00 24.2 24.1 24.4 0 6796 20.32 19.56 21.13 75.59 15.7 15.5
2018-08-12 23:00:00 24 24 24.2 0 6786 19.29 18.72 19.92 80.19 15.6 15.4
2018-08-13 00:00:00 23.8 23.6 23.9 0 6786 18.29 18.14 18.53 86.9 15.9 15.6
2018-08-13 01:00:00 23.7 23.6 23.8 0 6766 17.91 17.62 18.34 88.42 15.8 14.8
2018-08-13 02:00:00 23.4 23.3 23.5 0 6766 17.16 16.83 17.58 91.07 15.5 15.3
2018-08-13 03:00:00 23.3 23.2 23.5 0 6766 16.57 16.21 16.88 92.21 15.1 14.9
2018-08-13 04:00:00 23 22.9 23.3 0 6756 16.17 16.07 16.26 93.5 15 14.9
2018-08-13 05:00:00 22.9 22.8 23.1 0 6748 15.99 15.66 16.46 92.93 14.7 14.4
2018-08-13 06:00:00 22.6 22.6 22.9 0 6756 15.72 15.53 16.03 93.35 14.5 14.3
2018-08-13 07:00:00 22.5 22.4 22.7 0 6776 16.44 15.79 17.07 92.32 15 14.7
2018-08-13 08:00:00 22.3 22.3 22.5 0 6962 19.56 17.28 21.76 78.66 15.5 15.2
2018-08-13 09:00:00 22.2 22.1 22.4 0 7070 22.91 22.63 23.21 64.67 15.7 15.4
2018-08-13 10:00:00 22.2 22.1 22.4 0 7264 28.79 23.51 32.27 47.7 16.1 15.6
2018-08-13 11:00:00 22.2 22.1 22.5 0 7254 32.25 31.19 33.19 39.33 16.4 15.6
2018-08-13 12:00:00 22.5 22.3 22.7 0 7254 32.71 31.74 33.42 36.71 15.6 15.1
2018-08-13 13:00:00 22.9 22.8 23.1 0 7254 33.67 31.08 35.86 32.78 14.7 13.7
2018-08-13 14:00:00 23.4 23.3 23.6 0 7254 32.78 30.91 34.5 33.68 14.4 13.5
2018-08-13 15:00:00 23.8 23.6 24.1 0 7254 33.4 29.81 35.52 31 13.6 12.8
2018-08-13 16:00:00 24.2 24 24.6 0 7098 33.3 32.12 34.54 30.14 13.1 12.5
2018-08-13 17:00:00 24.4 24.3 24.6 0 7236 33.1 31.95 34.4 29.02 12.3 11.1
2018-08-13 18:00:00 24.7 24.5 24.9 0 6894 31.36 30.11 32.33 31.36 12.1 11.4
2018-08-13 19:00:00 24.7 24.4 25.1 0 6844 27.8 25.89 30.75 42.33 13.5 12.2
2018-08-13 20:00:00 24.8 24.7 24.9 0 6816 23.5 21.52 25.38 61.42 15.4 14.3
2018-08-13 21:00:00 24.7 24.6 24.9 0 6796 20.81 20.58 21.4 70.5 15.1 14.6
2018-08-13 22:00:00 24.5 24.4 24.7 0 6796 20.03 19.46 20.78 74.44 15.1 15
2018-08-13 23:00:00 24.3 24.2 24.5 0 6786 18.7 18.19 19.33 80.83 15.2 15
2018-08-14 00:00:00 24.1 24 24.2 0 6766 18.16 17.99 18.39 81.71 14.9 14.7
2018-08-14 01:00:00 23.9 23.8 24.2 0 6756 18.09 17.87 18.29 79.71 14.3 14.1
2018-08-14 02:00:00 23.7 23.6 23.9 0 6766 17.56 17.4 17.75 81.26 14.1 14
2018-08-14 03:00:00 23.5 23.5 23.7 0 6756 17.19 16.86 17.43 81.86 13.9 13.7
2018-08-14 04:00:00 23.3 23.2 23.5 0 6756 16.58 16.05 17.02 84.37 13.8 13.7
2018-08-14 05:00:00 23.1 23 23.3 0 6748 16.23 16.02 16.46 87.72 14 13.8
2018-08-14 06:00:00 22.9 22.8 23.1 0 6756 16.1 15.9 16.3 88.65 14 13.9
2018-08-14 07:00:00 22.6 22.5 22.8 0 6776 16.91 16.25 18 86.53 14.4 14.2
2018-08-14 08:00:00 22.5 22.4 22.7 0 6932 20.46 18.19 23.9 72.06 15 14.8
2018-08-14 09:00:00 22.3 22.3 22.5 0 7010 23.34 22.94 24.09 61.16 15.2 15
2018-08-14 10:00:00 22.3 22.3 22.5 0 7264 28.91 24.41 31.87 46.23 15.8 15.1